sensor_id;sensor_type;location;lat;lon;timestamp;P1;durP1;ratioP1;P2;durP2;ratioP2
10389;SDS011;5241;47.830;12.972;2024-03-08T00:00:13;20.30;;;9.30;;
10389;SDS011;5241;47.830;12.972;2024-03-08T00:02:39;19.57;;;9.37;;
10389;SDS011;5241;47.830;12.972;2024-03-08T00:05:05;17.33;;;9.83;;
10389;SDS011;5241;47.830;12.972;2024-03-08T00:07:33;17.23;;;9.83;;
10389;SDS011;5241;47.830;12.972;2024-03-08T00:10:02;20.77;;;10.63;;
10389;SDS011;5241;47.830;12.972;2024-03-08T00:12:29;20.97;;;10.07;;
10389;SDS011;5241;47.830;12.972;2024-03-08T00:14:55;23.33;;;9.57;;
10389;SDS011;5241;47.830;12.972;2024-03-08T00:17:21;23.13;;;8.63;;
10389;SDS011;5241;47.830;12.972;2024-03-08T00:19:50;21.03;;;10.53;;
10389;SDS011;5241;47.830;12.972;2024-03-08T00:22:16;16.97;;;9.63;;
10389;SDS011;5241;47.830;12.972;2024-03-08T00:24:42;20.10;;;10.63;;
10389;SDS011;5241;47.830;12.972;2024-03-08T00:27:07;20.23;;;9.57;;
10389;SDS011;5241;47.830;12.972;2024-03-08T00:29:34;23.57;;;10.80;;
10389;SDS011;5241;47.830;12.972;2024-03-08T00:31:59;21.67;;;10.27;;
10389;SDS011;5241;47.830;12.972;2024-03-08T00:34:26;21.37;;;10.57;;
10389;SDS011;5241;47.830;12.972;2024-03-08T00:36:51;18.93;;;9.23;;
10389;SDS011;5241;47.830;12.972;2024-03-08T00:39:17;22.60;;;9.63;;
10389;SDS011;5241;47.830;12.972;2024-03-08T00:41:45;21.57;;;10.53;;
10389;SDS011;5241;47.830;12.972;2024-03-08T00:44:11;20.47;;;10.63;;
10389;SDS011;5241;47.830;12.972;2024-03-08T00:46:37;19.07;;;10.63;;
10389;SDS011;5241;47.830;12.972;2024-03-08T00:49:03;22.13;;;10.53;;
10389;SDS011;5241;47.830;12.972;2024-03-08T00:51:28;21.20;;;11.37;;
10389;SDS011;5241;47.830;12.972;2024-03-08T00:53:54;22.93;;;10.53;;
10389;SDS011;5241;47.830;12.972;2024-03-08T00:56:19;22.03;;;10.00;;
10389;SDS011;5241;47.830;12.972;2024-03-08T00:58:45;20.70;;;10.57;;
10389;SDS011;5241;47.830;12.972;2024-03-08T01:01:12;23.33;;;10.60;;
10389;SDS011;5241;47.830;12.972;2024-03-08T01:03:41;20.10;;;11.10;;
10389;SDS011;5241;47.830;12.972;2024-03-08T01:06:08;25.40;;;12.07;;
10389;SDS011;5241;47.830;12.972;2024-03-08T01:08:33;27.53;;;10.47;;
10389;SDS011;5241;47.830;12.972;2024-03-08T01:10:59;20.47;;;10.33;;
10389;SDS011;5241;47.830;12.972;2024-03-08T01:13:24;16.47;;;9.67;;
10389;SDS011;5241;47.830;12.972;2024-03-08T01:15:50;22.43;;;10.93;;
10389;SDS011;5241;47.830;12.972;2024-03-08T01:18:15;15.67;;;9.67;;
10389;SDS011;5241;47.830;12.972;2024-03-08T01:20:41;20.70;;;9.40;;
10389;SDS011;5241;47.830;12.972;2024-03-08T01:23:07;21.60;;;10.43;;
10389;SDS011;5241;47.830;12.972;2024-03-08T01:25:35;18.90;;;8.93;;
10389;SDS011;5241;47.830;12.972;2024-03-08T01:28:01;24.07;;;11.23;;
10389;SDS011;5241;47.830;12.972;2024-03-08T01:30:27;20.83;;;9.67;;
10389;SDS011;5241;47.830;12.972;2024-03-08T01:32:53;20.50;;;9.77;;
10389;SDS011;5241;47.830;12.972;2024-03-08T01:35:18;22.37;;;10.63;;
10389;SDS011;5241;47.830;12.972;2024-03-08T01:37:46;21.73;;;10.43;;
10389;SDS011;5241;47.830;12.972;2024-03-08T01:40:14;27.30;;;9.80;;
10389;SDS011;5241;47.830;12.972;2024-03-08T01:42:41;24.47;;;9.97;;
10389;SDS011;5241;47.830;12.972;2024-03-08T01:45:07;21.50;;;9.10;;
10389;SDS011;5241;47.830;12.972;2024-03-08T01:47:33;14.33;;;8.83;;
10389;SDS011;5241;47.830;12.972;2024-03-08T01:49:59;18.40;;;9.17;;
10389;SDS011;5241;47.830;12.972;2024-03-08T01:52:28;20.10;;;8.30;;
10389;SDS011;5241;47.830;12.972;2024-03-08T01:54:56;26.27;;;10.50;;
10389;SDS011;5241;47.830;12.972;2024-03-08T01:57:25;21.63;;;9.47;;
10389;SDS011;5241;47.830;12.972;2024-03-08T01:59:51;20.43;;;9.80;;
10389;SDS011;5241;47.830;12.972;2024-03-08T02:02:19;14.67;;;9.47;;
10389;SDS011;5241;47.830;12.972;2024-03-08T02:04:45;23.93;;;9.23;;
10389;SDS011;5241;47.830;12.972;2024-03-08T02:07:11;16.47;;;8.60;;
10389;SDS011;5241;47.830;12.972;2024-03-08T02:09:36;23.30;;;10.33;;
10389;SDS011;5241;47.830;12.972;2024-03-08T02:12:02;19.53;;;8.20;;
10389;SDS011;5241;47.830;12.972;2024-03-08T02:14:28;25.23;;;9.43;;
10389;SDS011;5241;47.830;12.972;2024-03-08T02:16:53;19.67;;;9.53;;
10389;SDS011;5241;47.830;12.972;2024-03-08T02:19:19;19.60;;;9.03;;
10389;SDS011;5241;47.830;12.972;2024-03-08T02:21:45;20.03;;;9.93;;
10389;SDS011;5241;47.830;12.972;2024-03-08T02:24:12;18.73;;;10.23;;
10389;SDS011;5241;47.830;12.972;2024-03-08T02:26:38;17.43;;;8.93;;
10389;SDS011;5241;47.830;12.972;2024-03-08T02:29:04;22.43;;;10.00;;
10389;SDS011;5241;47.830;12.972;2024-03-08T02:31:30;18.57;;;8.70;;
10389;SDS011;5241;47.830;12.972;2024-03-08T02:33:56;20.93;;;9.87;;
10389;SDS011;5241;47.830;12.972;2024-03-08T02:36:21;19.07;;;10.13;;
10389;SDS011;5241;47.830;12.972;2024-03-08T02:38:47;18.17;;;8.70;;
10389;SDS011;5241;47.830;12.972;2024-03-08T02:41:12;19.27;;;8.90;;
10389;SDS011;5241;47.830;12.972;2024-03-08T02:43:38;24.30;;;9.57;;
10389;SDS011;5241;47.830;12.972;2024-03-08T02:46:03;23.20;;;10.43;;
10389;SDS011;5241;47.830;12.972;2024-03-08T02:48:30;17.93;;;10.00;;
10389;SDS011;5241;47.830;12.972;2024-03-08T02:50:55;17.87;;;9.93;;
10389;SDS011;5241;47.830;12.972;2024-03-08T02:53:21;22.33;;;9.27;;
10389;SDS011;5241;47.830;12.972;2024-03-08T02:55:47;18.97;;;9.07;;
10389;SDS011;5241;47.830;12.972;2024-03-08T02:58:12;17.27;;;9.40;;
10389;SDS011;5241;47.830;12.972;2024-03-08T03:00:39;25.90;;;9.67;;
10389;SDS011;5241;47.830;12.972;2024-03-08T03:03:06;22.00;;;9.63;;
10389;SDS011;5241;47.830;12.972;2024-03-08T03:05:32;21.07;;;8.17;;
10389;SDS011;5241;47.830;12.972;2024-03-08T03:07:58;20.03;;;9.07;;
10389;SDS011;5241;47.830;12.972;2024-03-08T03:10:24;23.03;;;9.73;;
10389;SDS011;5241;47.830;12.972;2024-03-08T03:12:50;24.57;;;10.73;;
10389;SDS011;5241;47.830;12.972;2024-03-08T03:15:17;22.50;;;9.90;;
10389;SDS011;5241;47.830;12.972;2024-03-08T03:17:49;20.13;;;8.97;;
10389;SDS011;5241;47.830;12.972;2024-03-08T03:20:19;17.03;;;8.47;;
10389;SDS011;5241;47.830;12.972;2024-03-08T03:22:57;17.17;;;9.27;;
10389;SDS011;5241;47.830;12.972;2024-03-08T03:25:26;20.17;;;8.57;;
10389;SDS011;5241;47.830;12.972;2024-03-08T03:27:54;25.10;;;10.63;;
10389;SDS011;5241;47.830;12.972;2024-03-08T03:30:23;27.37;;;10.40;;
10389;SDS011;5241;47.830;12.972;2024-03-08T03:32:51;26.87;;;10.10;;
10389;SDS011;5241;47.830;12.972;2024-03-08T03:35:17;22.40;;;9.57;;
10389;SDS011;5241;47.830;12.972;2024-03-08T03:37:45;19.03;;;10.20;;
10389;SDS011;5241;47.830;12.972;2024-03-08T03:40:26;21.30;;;10.27;;
10389;SDS011;5241;47.830;12.972;2024-03-08T03:42:52;20.63;;;9.23;;
10389;SDS011;5241;47.830;12.972;2024-03-08T03:45:18;22.80;;;8.67;;
10389;SDS011;5241;47.830;12.972;2024-03-08T03:47:45;20.70;;;9.63;;
10389;SDS011;5241;47.830;12.972;2024-03-08T03:50:10;19.90;;;8.20;;
10389;SDS011;5241;47.830;12.972;2024-03-08T03:52:36;25.77;;;8.80;;
10389;SDS011;5241;47.830;12.972;2024-03-08T03:55:02;21.47;;;9.73;;
10389;SDS011;5241;47.830;12.972;2024-03-08T03:57:29;18.50;;;8.90;;
10389;SDS011;5241;47.830;12.972;2024-03-08T03:59:55;20.60;;;9.23;;
10389;SDS011;5241;47.830;12.972;2024-03-08T04:02:22;20.50;;;8.90;;
10389;SDS011;5241;47.830;12.972;2024-03-08T04:04:47;21.70;;;9.63;;
10389;SDS011;5241;47.830;12.972;2024-03-08T04:07:14;24.63;;;8.70;;
10389;SDS011;5241;47.830;12.972;2024-03-08T04:09:39;21.10;;;9.17;;
10389;SDS011;5241;47.830;12.972;2024-03-08T04:12:05;19.37;;;10.00;;
10389;SDS011;5241;47.830;12.972;2024-03-08T04:14:31;18.07;;;8.87;;
10389;SDS011;5241;47.830;12.972;2024-03-08T04:16:56;19.70;;;8.93;;
10389;SDS011;5241;47.830;12.972;2024-03-08T04:19:22;22.10;;;9.80;;
10389;SDS011;5241;47.830;12.972;2024-03-08T04:21:49;22.43;;;10.10;;
10389;SDS011;5241;47.830;12.972;2024-03-08T04:24:14;21.47;;;9.20;;
10389;SDS011;5241;47.830;12.972;2024-03-08T04:26:42;18.43;;;9.27;;
10389;SDS011;5241;47.830;12.972;2024-03-08T04:29:07;19.67;;;8.40;;
10389;SDS011;5241;47.830;12.972;2024-03-08T04:31:33;24.53;;;9.87;;
10389;SDS011;5241;47.830;12.972;2024-03-08T04:33:58;22.43;;;10.00;;
10389;SDS011;5241;47.830;12.972;2024-03-08T04:36:24;21.13;;;9.20;;
10389;SDS011;5241;47.830;12.972;2024-03-08T04:38:50;22.37;;;10.07;;
10389;SDS011;5241;47.830;12.972;2024-03-08T04:41:16;16.40;;;8.00;;
10389;SDS011;5241;47.830;12.972;2024-03-08T04:43:42;24.33;;;10.37;;
10389;SDS011;5241;47.830;12.972;2024-03-08T04:46:08;21.03;;;9.83;;
10389;SDS011;5241;47.830;12.972;2024-03-08T04:48:33;21.57;;;8.93;;
10389;SDS011;5241;47.830;12.972;2024-03-08T04:51:01;23.00;;;9.53;;
10389;SDS011;5241;47.830;12.972;2024-03-08T04:53:28;19.10;;;8.87;;
10389;SDS011;5241;47.830;12.972;2024-03-08T04:55:54;18.47;;;9.13;;
10389;SDS011;5241;47.830;12.972;2024-03-08T04:58:22;20.00;;;10.00;;
10389;SDS011;5241;47.830;12.972;2024-03-08T05:00:48;21.30;;;9.87;;
10389;SDS011;5241;47.830;12.972;2024-03-08T05:03:14;22.40;;;10.27;;
10389;SDS011;5241;47.830;12.972;2024-03-08T05:05:39;21.10;;;9.53;;
10389;SDS011;5241;47.830;12.972;2024-03-08T05:08:05;16.30;;;8.83;;
10389;SDS011;5241;47.830;12.972;2024-03-08T05:10:31;20.50;;;8.43;;
10389;SDS011;5241;47.830;12.972;2024-03-08T05:12:56;20.43;;;9.70;;
10389;SDS011;5241;47.830;12.972;2024-03-08T05:15:22;14.30;;;7.97;;
10389;SDS011;5241;47.830;12.972;2024-03-08T05:17:47;17.27;;;9.17;;
10389;SDS011;5241;47.830;12.972;2024-03-08T05:20:13;23.67;;;9.43;;
10389;SDS011;5241;47.830;12.972;2024-03-08T05:22:38;19.20;;;9.97;;
10389;SDS011;5241;47.830;12.972;2024-03-08T05:25:05;17.77;;;8.67;;
10389;SDS011;5241;47.830;12.972;2024-03-08T05:27:33;21.47;;;9.43;;
10389;SDS011;5241;47.830;12.972;2024-03-08T05:29:59;20.43;;;10.07;;
10389;SDS011;5241;47.830;12.972;2024-03-08T05:32:25;16.20;;;8.70;;
10389;SDS011;5241;47.830;12.972;2024-03-08T05:34:51;21.17;;;9.93;;
10389;SDS011;5241;47.830;12.972;2024-03-08T05:37:17;17.93;;;9.00;;
10389;SDS011;5241;47.830;12.972;2024-03-08T05:39:42;20.60;;;9.73;;
10389;SDS011;5241;47.830;12.972;2024-03-08T05:42:09;21.70;;;8.93;;
10389;SDS011;5241;47.830;12.972;2024-03-08T05:44:35;17.47;;;8.13;;
10389;SDS011;5241;47.830;12.972;2024-03-08T05:47:00;17.90;;;9.27;;
10389;SDS011;5241;47.830;12.972;2024-03-08T05:49:26;23.00;;;8.53;;
10389;SDS011;5241;47.830;12.972;2024-03-08T05:51:51;27.40;;;11.13;;
10389;SDS011;5241;47.830;12.972;2024-03-08T05:54:19;24.57;;;12.10;;
10389;SDS011;5241;47.830;12.972;2024-03-08T05:56:47;27.70;;;10.80;;
10389;SDS011;5241;47.830;12.972;2024-03-08T05:59:12;22.90;;;11.33;;
10389;SDS011;5241;47.830;12.972;2024-03-08T06:01:38;20.53;;;9.37;;
10389;SDS011;5241;47.830;12.972;2024-03-08T06:04:05;21.83;;;9.33;;
10389;SDS011;5241;47.830;12.972;2024-03-08T06:06:32;25.97;;;10.83;;
10389;SDS011;5241;47.830;12.972;2024-03-08T06:08:58;21.10;;;9.77;;
10389;SDS011;5241;47.830;12.972;2024-03-08T06:11:24;20.03;;;10.13;;
10389;SDS011;5241;47.830;12.972;2024-03-08T06:13:55;21.77;;;10.63;;
10389;SDS011;5241;47.830;12.972;2024-03-08T06:16:24;19.13;;;9.17;;
10389;SDS011;5241;47.830;12.972;2024-03-08T06:18:54;22.10;;;11.27;;
10389;SDS011;5241;47.830;12.972;2024-03-08T06:21:20;22.10;;;10.07;;
10389;SDS011;5241;47.830;12.972;2024-03-08T06:23:47;28.27;;;10.47;;
10389;SDS011;5241;47.830;12.972;2024-03-08T06:26:13;20.03;;;10.30;;
10389;SDS011;5241;47.830;12.972;2024-03-08T06:28:38;22.27;;;10.57;;
10389;SDS011;5241;47.830;12.972;2024-03-08T06:31:04;21.07;;;10.00;;
10389;SDS011;5241;47.830;12.972;2024-03-08T06:33:30;25.03;;;10.50;;
10389;SDS011;5241;47.830;12.972;2024-03-08T06:35:57;28.17;;;12.63;;
10389;SDS011;5241;47.830;12.972;2024-03-08T06:38:23;23.63;;;11.77;;
10389;SDS011;5241;47.830;12.972;2024-03-08T06:40:49;28.07;;;12.13;;
10389;SDS011;5241;47.830;12.972;2024-03-08T06:43:16;21.47;;;11.53;;
10389;SDS011;5241;47.830;12.972;2024-03-08T06:45:42;27.60;;;12.93;;
10389;SDS011;5241;47.830;12.972;2024-03-08T06:48:13;23.20;;;11.87;;
10389;SDS011;5241;47.830;12.972;2024-03-08T06:50:45;21.87;;;10.87;;
10389;SDS011;5241;47.830;12.972;2024-03-08T06:53:11;32.33;;;11.70;;
10389;SDS011;5241;47.830;12.972;2024-03-08T06:55:38;24.33;;;11.60;;
10389;SDS011;5241;47.830;12.972;2024-03-08T06:58:04;26.17;;;10.60;;
10389;SDS011;5241;47.830;12.972;2024-03-08T07:00:29;27.57;;;11.40;;
10389;SDS011;5241;47.830;12.972;2024-03-08T07:02:55;23.87;;;10.13;;
10389;SDS011;5241;47.830;12.972;2024-03-08T07:05:25;23.67;;;10.90;;
10389;SDS011;5241;47.830;12.972;2024-03-08T07:07:51;23.13;;;11.00;;
10389;SDS011;5241;47.830;12.972;2024-03-08T07:10:17;37.10;;;10.93;;
10389;SDS011;5241;47.830;12.972;2024-03-08T07:12:44;20.37;;;10.87;;
10389;SDS011;5241;47.830;12.972;2024-03-08T07:15:10;28.57;;;12.17;;
10389;SDS011;5241;47.830;12.972;2024-03-08T07:17:39;27.13;;;11.83;;
10389;SDS011;5241;47.830;12.972;2024-03-08T07:20:05;23.27;;;12.00;;
10389;SDS011;5241;47.830;12.972;2024-03-08T07:22:36;22.17;;;11.37;;
10389;SDS011;5241;47.830;12.972;2024-03-08T07:25:03;24.67;;;10.97;;
10389;SDS011;5241;47.830;12.972;2024-03-08T07:27:33;22.83;;;11.10;;
10389;SDS011;5241;47.830;12.972;2024-03-08T07:30:04;24.03;;;10.40;;
10389;SDS011;5241;47.830;12.972;2024-03-08T07:32:30;22.23;;;10.23;;
10389;SDS011;5241;47.830;12.972;2024-03-08T07:34:56;23.43;;;11.07;;
10389;SDS011;5241;47.830;12.972;2024-03-08T07:37:22;25.30;;;10.77;;
10389;SDS011;5241;47.830;12.972;2024-03-08T07:39:48;20.80;;;9.23;;
10389;SDS011;5241;47.830;12.972;2024-03-08T07:42:14;17.53;;;9.53;;
10389;SDS011;5241;47.830;12.972;2024-03-08T07:44:39;20.50;;;10.80;;
10389;SDS011;5241;47.830;12.972;2024-03-08T07:47:05;14.50;;;8.30;;
10389;SDS011;5241;47.830;12.972;2024-03-08T07:49:34;23.83;;;10.97;;
10389;SDS011;5241;47.830;12.972;2024-03-08T07:52:03;19.60;;;10.73;;
10389;SDS011;5241;47.830;12.972;2024-03-08T07:54:29;21.70;;;11.50;;
10389;SDS011;5241;47.830;12.972;2024-03-08T07:56:55;15.23;;;8.80;;
10389;SDS011;5241;47.830;12.972;2024-03-08T07:59:21;20.80;;;10.60;;
10389;SDS011;5241;47.830;12.972;2024-03-08T08:01:46;16.30;;;8.93;;
10389;SDS011;5241;47.830;12.972;2024-03-08T08:04:12;15.03;;;9.47;;
10389;SDS011;5241;47.830;12.972;2024-03-08T08:06:39;19.03;;;10.33;;
10389;SDS011;5241;47.830;12.972;2024-03-08T08:09:08;13.20;;;7.87;;
10389;SDS011;5241;47.830;12.972;2024-03-08T08:11:42;15.27;;;8.73;;
10389;SDS011;5241;47.830;12.972;2024-03-08T08:14:08;14.63;;;8.47;;
10389;SDS011;5241;47.830;12.972;2024-03-08T08:16:35;15.60;;;8.93;;
10389;SDS011;5241;47.830;12.972;2024-03-08T08:19:06;14.70;;;7.33;;
10389;SDS011;5241;47.830;12.972;2024-03-08T08:21:35;11.37;;;7.70;;
10389;SDS011;5241;47.830;12.972;2024-03-08T08:24:03;11.87;;;7.70;;
10389;SDS011;5241;47.830;12.972;2024-03-08T08:26:29;14.23;;;7.20;;
10389;SDS011;5241;47.830;12.972;2024-03-08T08:28:55;12.00;;;7.27;;
10389;SDS011;5241;47.830;12.972;2024-03-08T08:31:20;10.60;;;7.70;;
10389;SDS011;5241;47.830;12.972;2024-03-08T08:33:46;9.33;;;5.63;;
10389;SDS011;5241;47.830;12.972;2024-03-08T08:36:13;8.00;;;5.53;;
10389;SDS011;5241;47.830;12.972;2024-03-08T08:38:39;6.67;;;4.40;;
10389;SDS011;5241;47.830;12.972;2024-03-08T08:41:07;4.90;;;4.10;;
10389;SDS011;5241;47.830;12.972;2024-03-08T08:43:34;4.77;;;3.23;;
10389;SDS011;5241;47.830;12.972;2024-03-08T08:46:00;4.60;;;2.70;;
10389;SDS011;5241;47.830;12.972;2024-03-08T08:48:26;3.33;;;2.40;;
10389;SDS011;5241;47.830;12.972;2024-03-08T08:50:54;5.30;;;2.87;;
10389;SDS011;5241;47.830;12.972;2024-03-08T08:53:20;5.63;;;2.73;;
10389;SDS011;5241;47.830;12.972;2024-03-08T08:55:46;4.63;;;3.13;;
10389;SDS011;5241;47.830;12.972;2024-03-08T08:58:11;3.73;;;2.70;;
10389;SDS011;5241;47.830;12.972;2024-03-08T09:00:37;3.67;;;2.60;;
10389;SDS011;5241;47.830;12.972;2024-03-08T09:03:04;3.83;;;2.63;;
10389;SDS011;5241;47.830;12.972;2024-03-08T09:05:31;4.03;;;2.73;;
10389;SDS011;5241;47.830;12.972;2024-03-08T09:07:57;4.37;;;3.20;;
10389;SDS011;5241;47.830;12.972;2024-03-08T09:10:23;4.37;;;2.90;;
10389;SDS011;5241;47.830;12.972;2024-03-08T09:12:48;4.50;;;2.97;;
10389;SDS011;5241;47.830;12.972;2024-03-08T09:15:14;5.50;;;3.27;;
10389;SDS011;5241;47.830;12.972;2024-03-08T09:17:45;4.20;;;2.67;;
10389;SDS011;5241;47.830;12.972;2024-03-08T09:20:11;5.10;;;3.77;;
10389;SDS011;5241;47.830;12.972;2024-03-08T09:22:40;4.47;;;2.97;;
10389;SDS011;5241;47.830;12.972;2024-03-08T09:25:08;4.27;;;3.00;;
10389;SDS011;5241;47.830;12.972;2024-03-08T09:27:34;4.70;;;2.73;;
10389;SDS011;5241;47.830;12.972;2024-03-08T09:30:00;3.67;;;2.97;;
10389;SDS011;5241;47.830;12.972;2024-03-08T09:32:26;4.63;;;3.00;;
10389;SDS011;5241;47.830;12.972;2024-03-08T09:34:51;4.50;;;3.40;;
10389;SDS011;5241;47.830;12.972;2024-03-08T09:37:17;4.43;;;2.87;;
10389;SDS011;5241;47.830;12.972;2024-03-08T09:39:43;5.93;;;3.20;;
10389;SDS011;5241;47.830;12.972;2024-03-08T09:42:09;4.80;;;3.07;;
10389;SDS011;5241;47.830;12.972;2024-03-08T09:44:36;3.87;;;3.03;;
10389;SDS011;5241;47.830;12.972;2024-03-08T09:47:01;6.13;;;3.47;;
10389;SDS011;5241;47.830;12.972;2024-03-08T09:49:28;5.37;;;3.43;;
10389;SDS011;5241;47.830;12.972;2024-03-08T09:51:54;4.27;;;3.43;;
10389;SDS011;5241;47.830;12.972;2024-03-08T09:54:20;4.40;;;3.40;;
10389;SDS011;5241;47.830;12.972;2024-03-08T09:56:47;4.40;;;3.40;;
10389;SDS011;5241;47.830;12.972;2024-03-08T09:59:14;3.73;;;3.10;;
10389;SDS011;5241;47.830;12.972;2024-03-08T10:01:59;5.63;;;3.77;;
10389;SDS011;5241;47.830;12.972;2024-03-08T10:04:24;6.43;;;4.03;;
10389;SDS011;5241;47.830;12.972;2024-03-08T10:06:55;5.57;;;3.73;;
10389;SDS011;5241;47.830;12.972;2024-03-08T10:09:25;5.47;;;3.70;;
10389;SDS011;5241;47.830;12.972;2024-03-08T10:11:56;5.50;;;3.90;;
10389;SDS011;5241;47.830;12.972;2024-03-08T10:14:22;5.53;;;3.30;;
10389;SDS011;5241;47.830;12.972;2024-03-08T10:16:49;4.03;;;3.23;;
10389;SDS011;5241;47.830;12.972;2024-03-08T10:19:14;5.70;;;4.03;;
10389;SDS011;5241;47.830;12.972;2024-03-08T10:21:50;5.60;;;3.37;;
10389;SDS011;5241;47.830;12.972;2024-03-08T10:24:19;4.93;;;3.83;;
10389;SDS011;5241;47.830;12.972;2024-03-08T10:26:45;4.90;;;3.50;;
10389;SDS011;5241;47.830;12.972;2024-03-08T10:29:11;5.33;;;3.70;;
10389;SDS011;5241;47.830;12.972;2024-03-08T10:31:42;5.63;;;3.90;;
10389;SDS011;5241;47.830;12.972;2024-03-08T10:34:09;6.70;;;3.67;;
10389;SDS011;5241;47.830;12.972;2024-03-08T10:36:35;6.07;;;3.97;;
10389;SDS011;5241;47.830;12.972;2024-03-08T10:39:03;5.50;;;3.90;;
10389;SDS011;5241;47.830;12.972;2024-03-08T10:41:35;9.20;;;6.40;;
10389;SDS011;5241;47.830;12.972;2024-03-08T10:49:16;13.87;;;7.50;;
10389;SDS011;5241;47.830;12.972;2024-03-08T10:51:42;12.30;;;7.67;;
10389;SDS011;5241;47.830;12.972;2024-03-08T10:54:09;14.50;;;7.43;;
10389;SDS011;5241;47.830;12.972;2024-03-08T10:56:36;11.37;;;7.10;;
10389;SDS011;5241;47.830;12.972;2024-03-08T10:59:02;12.17;;;7.37;;
10389;SDS011;5241;47.830;12.972;2024-03-08T11:01:29;10.37;;;7.23;;
10389;SDS011;5241;47.830;12.972;2024-03-08T11:03:55;13.00;;;7.80;;
10389;SDS011;5241;47.830;12.972;2024-03-08T11:08:55;10.83;;;7.07;;
10389;SDS011;5241;47.830;12.972;2024-03-08T11:11:26;9.40;;;6.90;;
10389;SDS011;5241;47.830;12.972;2024-03-08T11:13:59;12.47;;;7.80;;
10389;SDS011;5241;47.830;12.972;2024-03-08T11:19:05;9.83;;;6.10;;
10389;SDS011;5241;47.830;12.972;2024-03-08T11:21:48;9.47;;;6.23;;
10389;SDS011;5241;47.830;12.972;2024-03-08T11:24:25;11.43;;;7.53;;
10389;SDS011;5241;47.830;12.972;2024-03-08T11:26:54;10.63;;;7.73;;
10389;SDS011;5241;47.830;12.972;2024-03-08T11:32:30;13.10;;;7.73;;
10389;SDS011;5241;47.830;12.972;2024-03-08T11:34:53;11.17;;;7.20;;
10389;SDS011;5241;47.830;12.972;2024-03-08T11:37:19;11.17;;;7.63;;
10389;SDS011;5241;47.830;12.972;2024-03-08T11:39:48;11.77;;;8.23;;
10389;SDS011;5241;47.830;12.972;2024-03-08T11:42:20;12.13;;;7.83;;
10389;SDS011;5241;47.830;12.972;2024-03-08T11:44:46;12.27;;;8.03;;
10389;SDS011;5241;47.830;12.972;2024-03-08T11:47:12;9.20;;;7.60;;
10389;SDS011;5241;47.830;12.972;2024-03-08T11:49:39;11.13;;;7.57;;
10389;SDS011;5241;47.830;12.972;2024-03-08T11:52:10;13.67;;;8.47;;
10389;SDS011;5241;47.830;12.972;2024-03-08T11:54:38;11.53;;;7.97;;
10389;SDS011;5241;47.830;12.972;2024-03-08T11:57:04;11.33;;;7.30;;
10389;SDS011;5241;47.830;12.972;2024-03-08T11:59:29;9.70;;;6.70;;
10389;SDS011;5241;47.830;12.972;2024-03-08T12:02:05;10.53;;;6.73;;
10389;SDS011;5241;47.830;12.972;2024-03-08T12:04:31;10.80;;;6.73;;
10389;SDS011;5241;47.830;12.972;2024-03-08T12:07:00;12.23;;;8.27;;
10389;SDS011;5241;47.830;12.972;2024-03-08T12:09:27;11.93;;;7.83;;
10389;SDS011;5241;47.830;12.972;2024-03-08T12:11:53;10.87;;;6.87;;
10389;SDS011;5241;47.830;12.972;2024-03-08T12:14:19;10.80;;;7.60;;
10389;SDS011;5241;47.830;12.972;2024-03-08T12:16:45;10.23;;;7.83;;
10389;SDS011;5241;47.830;12.972;2024-03-08T12:19:11;11.37;;;7.77;;
10389;SDS011;5241;47.830;12.972;2024-03-08T12:21:37;9.17;;;7.03;;
10389;SDS011;5241;47.830;12.972;2024-03-08T12:26:34;10.83;;;7.97;;
10389;SDS011;5241;47.830;12.972;2024-03-08T12:29:17;11.10;;;7.47;;
10389;SDS011;5241;47.830;12.972;2024-03-08T12:31:47;10.97;;;7.63;;
10389;SDS011;5241;47.830;12.972;2024-03-08T12:34:16;9.33;;;6.73;;
10389;SDS011;5241;47.830;12.972;2024-03-08T12:36:45;11.70;;;7.90;;
10389;SDS011;5241;47.830;12.972;2024-03-08T12:39:17;11.03;;;7.70;;
10389;SDS011;5241;47.830;12.972;2024-03-08T12:41:51;10.00;;;7.03;;
10389;SDS011;5241;47.830;12.972;2024-03-08T12:44:18;10.80;;;7.77;;
10389;SDS011;5241;47.830;12.972;2024-03-08T12:46:46;9.60;;;7.70;;
10389;SDS011;5241;47.830;12.972;2024-03-08T12:49:13;10.47;;;7.63;;
10389;SDS011;5241;47.830;12.972;2024-03-08T12:51:43;9.00;;;7.10;;
10389;SDS011;5241;47.830;12.972;2024-03-08T12:54:10;11.90;;;8.07;;
10389;SDS011;5241;47.830;12.972;2024-03-08T12:56:35;10.77;;;7.53;;
10389;SDS011;5241;47.830;12.972;2024-03-08T12:59:02;9.03;;;7.10;;
10389;SDS011;5241;47.830;12.972;2024-03-08T13:01:29;9.37;;;7.53;;
10389;SDS011;5241;47.830;12.972;2024-03-08T13:03:57;9.70;;;7.53;;
10389;SDS011;5241;47.830;12.972;2024-03-08T13:06:23;12.87;;;7.77;;
10389;SDS011;5241;47.830;12.972;2024-03-08T13:08:52;9.50;;;7.03;;
10389;SDS011;5241;47.830;12.972;2024-03-08T13:11:18;11.27;;;7.23;;
10389;SDS011;5241;47.830;12.972;2024-03-08T13:13:45;10.20;;;7.10;;
10389;SDS011;5241;47.830;12.972;2024-03-08T13:16:10;9.63;;;6.53;;
10389;SDS011;5241;47.830;12.972;2024-03-08T13:18:39;8.53;;;6.03;;
10389;SDS011;5241;47.830;12.972;2024-03-08T13:21:07;8.53;;;6.40;;
10389;SDS011;5241;47.830;12.972;2024-03-08T13:23:34;9.33;;;7.17;;
10389;SDS011;5241;47.830;12.972;2024-03-08T13:26:14;11.07;;;6.43;;
10389;SDS011;5241;47.830;12.972;2024-03-08T13:28:43;9.73;;;6.47;;
10389;SDS011;5241;47.830;12.972;2024-03-08T13:31:10;8.27;;;6.73;;
10389;SDS011;5241;47.830;12.972;2024-03-08T13:33:37;9.60;;;6.63;;
10389;SDS011;5241;47.830;12.972;2024-03-08T13:36:07;9.47;;;6.83;;
10389;SDS011;5241;47.830;12.972;2024-03-08T13:38:40;9.70;;;6.80;;
10389;SDS011;5241;47.830;12.972;2024-03-08T13:41:08;9.53;;;6.47;;
10389;SDS011;5241;47.830;12.972;2024-03-08T13:43:34;10.10;;;7.10;;
10389;SDS011;5241;47.830;12.972;2024-03-08T13:46:01;8.73;;;6.30;;
10389;SDS011;5241;47.830;12.972;2024-03-08T13:48:27;8.40;;;6.27;;
10389;SDS011;5241;47.830;12.972;2024-03-08T13:50:53;7.83;;;6.27;;
10389;SDS011;5241;47.830;12.972;2024-03-08T13:53:19;8.17;;;6.20;;
10389;SDS011;5241;47.830;12.972;2024-03-08T13:55:45;9.13;;;6.73;;
10389;SDS011;5241;47.830;12.972;2024-03-08T13:58:10;11.50;;;7.67;;
10389;SDS011;5241;47.830;12.972;2024-03-08T14:00:38;8.77;;;6.60;;
10389;SDS011;5241;47.830;12.972;2024-03-08T14:03:06;9.37;;;6.50;;
10389;SDS011;5241;47.830;12.972;2024-03-08T14:05:32;9.37;;;6.90;;
10389;SDS011;5241;47.830;12.972;2024-03-08T14:08:00;8.33;;;6.17;;
10389;SDS011;5241;47.830;12.972;2024-03-08T14:10:29;9.40;;;6.90;;
10389;SDS011;5241;47.830;12.972;2024-03-08T14:12:56;7.90;;;6.20;;
10389;SDS011;5241;47.830;12.972;2024-03-08T14:15:22;9.00;;;6.47;;
10389;SDS011;5241;47.830;12.972;2024-03-08T14:17:54;9.77;;;6.47;;
10389;SDS011;5241;47.830;12.972;2024-03-08T14:20:20;8.80;;;7.40;;
10389;SDS011;5241;47.830;12.972;2024-03-08T14:22:50;9.13;;;6.73;;
10389;SDS011;5241;47.830;12.972;2024-03-08T14:25:17;9.30;;;6.67;;
10389;SDS011;5241;47.830;12.972;2024-03-08T14:27:43;8.40;;;5.63;;
10389;SDS011;5241;47.830;12.972;2024-03-08T14:30:10;9.03;;;6.73;;
10389;SDS011;5241;47.830;12.972;2024-03-08T14:32:36;9.67;;;6.17;;
10389;SDS011;5241;47.830;12.972;2024-03-08T14:35:03;9.03;;;6.43;;
10389;SDS011;5241;47.830;12.972;2024-03-08T14:37:32;8.13;;;6.13;;
10389;SDS011;5241;47.830;12.972;2024-03-08T14:39:57;8.57;;;6.03;;
10389;SDS011;5241;47.830;12.972;2024-03-08T14:42:23;8.60;;;6.13;;
10389;SDS011;5241;47.830;12.972;2024-03-08T14:44:51;9.07;;;5.83;;
10389;SDS011;5241;47.830;12.972;2024-03-08T14:47:19;9.97;;;6.00;;
10389;SDS011;5241;47.830;12.972;2024-03-08T14:49:44;7.63;;;5.40;;